sensor_id;sensor_type;location;lat;lon;timestamp;pressure;altitude;pressure_sealevel;temperature;humidity
44297;BME280;51842;47.450;8.654;2023-12-07T00:02:12;95753.41;;;1.02;100.00
44297;BME280;51842;47.450;8.654;2023-12-07T00:04:38;95747.75;;;0.98;100.00
44297;BME280;51842;47.450;8.654;2023-12-07T00:07:04;95749.75;;;0.89;100.00
44297;BME280;51842;47.450;8.654;2023-12-07T00:09:30;95759.22;;;0.90;100.00
44297;BME280;51842;47.450;8.654;2023-12-07T00:11:56;95751.56;;;0.89;100.00
44297;BME280;51842;47.450;8.654;2023-12-07T00:14:22;95758.22;;;0.85;100.00
44297;BME280;51842;47.450;8.654;2023-12-07T00:16:47;95751.75;;;0.81;100.00
44297;BME280;51842;47.450;8.654;2023-12-07T00:19:14;95747.31;;;0.81;100.00
44297;BME280;51842;47.450;8.654;2023-12-07T00:21:40;95752.94;;;0.78;100.00
44297;BME280;51842;47.450;8.654;2023-12-07T00:24:06;95753.16;;;0.77;100.00
44297;BME280;51842;47.450;8.654;2023-12-07T00:26:32;95749.13;;;0.74;100.00
44297;BME280;51842;47.450;8.654;2023-12-07T00:28:59;95748.72;;;0.71;100.00
44297;BME280;51842;47.450;8.654;2023-12-07T00:31:26;95746.47;;;0.67;100.00
44297;BME280;51842;47.450;8.654;2023-12-07T00:33:52;95744.88;;;0.66;100.00
44297;BME280;51842;47.450;8.654;2023-12-07T00:36:17;95742.66;;;0.63;100.00
44297;BME280;51842;47.450;8.654;2023-12-07T00:38:43;95744.66;;;0.61;100.00
44297;BME280;51842;47.450;8.654;2023-12-07T00:41:09;95745.06;;;0.58;100.00
44297;BME280;51842;47.450;8.654;2023-12-07T00:43:35;95748.47;;;0.52;100.00
44297;BME280;51842;47.450;8.654;2023-12-07T00:46:00;95739.41;;;0.55;100.00
44297;BME280;51842;47.450;8.654;2023-12-07T00:48:27;95746.47;;;0.54;100.00
44297;BME280;51842;47.450;8.654;2023-12-07T00:50:53;95736.78;;;0.55;100.00
44297;BME280;51842;47.450;8.654;2023-12-07T00:53:18;95752.28;;;0.56;100.00
44297;BME280;51842;47.450;8.654;2023-12-07T00:55:44;95753.72;;;0.59;100.00
44297;BME280;51842;47.450;8.654;2023-12-07T00:58:10;95750.50;;;0.57;100.00
44297;BME280;51842;47.450;8.654;2023-12-07T01:00:36;95761.97;;;0.56;100.00
44297;BME280;51842;47.450;8.654;2023-12-07T01:03:02;95750.28;;;0.58;100.00
44297;BME280;51842;47.450;8.654;2023-12-07T01:05:28;95762.38;;;0.59;100.00
44297;BME280;51842;47.450;8.654;2023-12-07T01:07:54;95762.38;;;0.53;100.00
44297;BME280;51842;47.450;8.654;2023-12-07T01:10:20;95762.78;;;0.56;100.00
44297;BME280;51842;47.450;8.654;2023-12-07T01:12:45;95758.16;;;0.58;100.00
44297;BME280;51842;47.450;8.654;2023-12-07T01:15:11;95754.53;;;0.59;100.00
44297;BME280;51842;47.450;8.654;2023-12-07T01:17:38;95751.72;;;0.61;100.00
44297;BME280;51842;47.450;8.654;2023-12-07T01:20:06;95755.34;;;0.60;100.00
44297;BME280;51842;47.450;8.654;2023-12-07T01:22:41;95760.16;;;0.56;100.00
44297;BME280;51842;47.450;8.654;2023-12-07T01:25:08;95759.75;;;0.59;100.00
44297;BME280;51842;47.450;8.654;2023-12-07T01:27:34;95761.19;;;0.62;100.00
44297;BME280;51842;47.450;8.654;2023-12-07T01:30:00;95761.19;;;0.62;100.00
44297;BME280;51842;47.450;8.654;2023-12-07T01:32:27;95762.63;;;0.64;100.00
44297;BME280;51842;47.450;8.654;2023-12-07T01:34:53;95764.63;;;0.62;100.00
44297;BME280;51842;47.450;8.654;2023-12-07T01:37:19;95770.69;;;0.63;100.00
44297;BME280;51842;47.450;8.654;2023-12-07T01:39:44;95773.88;;;0.58;100.00
44297;BME280;51842;47.450;8.654;2023-12-07T01:42:10;95767.63;;;0.59;100.00
44297;BME280;51842;47.450;8.654;2023-12-07T01:45:11;95772.06;;;0.59;100.00
44297;BME280;51842;47.450;8.654;2023-12-07T01:49:26;95781.75;;;0.58;100.00
44297;BME280;51842;47.450;8.654;2023-12-07T01:52:57;95781.56;;;0.60;100.00
44297;BME280;51842;47.450;8.654;2023-12-07T01:56:20;95776.50;;;0.58;100.00
44297;BME280;51842;47.450;8.654;2023-12-07T02:06:59;95776.25;;;0.46;100.00
44297;BME280;51842;47.450;8.654;2023-12-07T02:10:42;95782.50;;;0.45;100.00
44297;BME280;51842;47.450;8.654;2023-12-07T02:14:21;95779.09;;;0.45;100.00
44297;BME280;51842;47.450;8.654;2023-12-07T02:28:56;95766.88;;;0.17;100.00
44297;BME280;51842;47.450;8.654;2023-12-07T02:32:08;95771.69;;;0.07;100.00
44297;BME280;51842;47.450;8.654;2023-12-07T02:39:04;95775.56;;;-0.17;100.00
44297;BME280;51842;47.450;8.654;2023-12-07T02:45:55;95785.91;;;-0.09;100.00
44297;BME280;51842;47.450;8.654;2023-12-07T02:53:19;95792.88;;;-0.16;100.00
44297;BME280;51842;47.450;8.654;2023-12-07T02:56:26;95790.25;;;-0.16;100.00
44297;BME280;51842;47.450;8.654;2023-12-07T02:59:01;95786.03;;;-0.17;100.00
44297;BME280;51842;47.450;8.654;2023-12-07T03:01:52;95779.66;;;-0.08;100.00
44297;BME280;51842;47.450;8.654;2023-12-07T03:04:42;95781.09;;;0.02;100.00
44297;BME280;51842;47.450;8.654;2023-12-07T03:07:27;95777.09;;;0.06;100.00
44297;BME280;51842;47.450;8.654;2023-12-07T03:10:13;95776.13;;;0.07;100.00
44297;BME280;51842;47.450;8.654;2023-12-07T03:12:42;95776.53;;;0.10;100.00
44297;BME280;51842;47.450;8.654;2023-12-07T03:15:47;95774.31;;;0.14;100.00
44297;BME280;51842;47.450;8.654;2023-12-07T03:18:41;95769.09;;;0.14;100.00
44297;BME280;51842;47.450;8.654;2023-12-07T03:21:27;95766.84;;;0.11;100.00
44297;BME280;51842;47.450;8.654;2023-12-07T03:23:55;95769.66;;;0.09;100.00
44297;BME280;51842;47.450;8.654;2023-12-07T03:26:39;95764.22;;;0.04;100.00
44297;BME280;51842;47.450;8.654;2023-12-07T03:29:18;95769.63;;;0.03;100.00
44297;BME280;51842;47.450;8.654;2023-12-07T03:31:52;95768.63;;;-0.03;100.00
44297;BME280;51842;47.450;8.654;2023-12-07T03:34:56;95766.75;;;-0.09;100.00
44297;BME280;51842;47.450;8.654;2023-12-07T03:37:55;95770.94;;;-0.15;100.00
44297;BME280;51842;47.450;8.654;2023-12-07T03:40:27;95772.94;;;-0.17;100.00
44297;BME280;51842;47.450;8.654;2023-12-07T03:42:57;95768.31;;;-0.21;100.00
44297;BME280;51842;47.450;8.654;2023-12-07T03:45:39;95770.69;;;-0.27;100.00
44297;BME280;51842;47.450;8.654;2023-12-07T03:48:25;95769.16;;;-0.42;100.00
44297;BME280;51842;47.450;8.654;2023-12-07T03:51:00;95767.44;;;-0.57;100.00
44297;BME280;51842;47.450;8.654;2023-12-07T03:53:43;95768.81;;;-0.61;100.00
44297;BME280;51842;47.450;8.654;2023-12-07T03:56:36;95767.72;;;-0.73;100.00
44297;BME280;51842;47.450;8.654;2023-12-07T03:59:09;95766.13;;;-0.74;100.00
44297;BME280;51842;47.450;8.654;2023-12-07T04:01:35;95767.56;;;-0.72;100.00
44297;BME280;51842;47.450;8.654;2023-12-07T04:04:10;95773.34;;;-0.76;100.00
44297;BME280;51842;47.450;8.654;2023-12-07T04:06:47;95771.47;;;-0.82;100.00
44297;BME280;51842;47.450;8.654;2023-12-07T04:09:30;95770.78;;;-0.91;100.00
44297;BME280;51842;47.450;8.654;2023-12-07T04:11:56;95771.00;;;-0.93;100.00
44297;BME280;51842;47.450;8.654;2023-12-07T04:14:28;95771.16;;;-0.94;100.00
44297;BME280;51842;47.450;8.654;2023-12-07T04:17:00;95774.34;;;-0.99;100.00
44297;BME280;51842;47.450;8.654;2023-12-07T04:19:29;95780.16;;;-1.03;100.00
44297;BME280;51842;47.450;8.654;2023-12-07T04:22:11;95787.53;;;-1.07;100.00
44297;BME280;51842;47.450;8.654;2023-12-07T04:24:37;95775.59;;;-1.16;100.00
44297;BME280;51842;47.450;8.654;2023-12-07T04:27:03;95783.00;;;-1.20;100.00
44297;BME280;51842;47.450;8.654;2023-12-07T04:29:29;95785.38;;;-1.25;100.00
44297;BME280;51842;47.450;8.654;2023-12-07T04:31:55;95786.56;;;-1.27;100.00
44297;BME280;51842;47.450;8.654;2023-12-07T04:34:21;95790.53;;;-1.31;100.00
44297;BME280;51842;47.450;8.654;2023-12-07T04:36:46;95788.28;;;-1.34;100.00
44297;BME280;51842;47.450;8.654;2023-12-07T04:39:12;95790.66;;;-1.40;100.00
44297;BME280;51842;47.450;8.654;2023-12-07T04:41:38;95785.78;;;-1.43;100.00
44297;BME280;51842;47.450;8.654;2023-12-07T04:44:04;95779.31;;;-1.47;100.00
44297;BME280;51842;47.450;8.654;2023-12-07T04:46:30;95784.34;;;-1.45;100.00
44297;BME280;51842;47.450;8.654;2023-12-07T04:48:56;95782.72;;;-1.46;100.00
44297;BME280;51842;47.450;8.654;2023-12-07T04:51:21;95776.88;;;-1.48;100.00
44297;BME280;51842;47.450;8.654;2023-12-07T04:53:47;95773.81;;;-1.52;100.00
44297;BME280;51842;47.450;8.654;2023-12-07T04:56:13;95775.19;;;-1.56;100.00
44297;BME280;51842;47.450;8.654;2023-12-07T04:58:39;95779.97;;;-1.59;100.00
44297;BME280;51842;47.450;8.654;2023-12-07T05:01:05;95772.50;;;-1.63;100.00
44297;BME280;51842;47.450;8.654;2023-12-07T05:03:32;95779.88;;;-1.66;100.00
44297;BME280;51842;47.450;8.654;2023-12-07T05:05:58;95772.44;;;-1.69;100.00
44297;BME280;51842;47.450;8.654;2023-12-07T05:08:24;95771.97;;;-1.73;100.00
44297;BME280;51842;47.450;8.654;2023-12-07T05:10:49;95768.75;;;-1.75;100.00
44297;BME280;51842;47.450;8.654;2023-12-07T05:13:16;95771.09;;;-1.80;100.00
44297;BME280;51842;47.450;8.654;2023-12-07T05:15:41;95766.66;;;-1.79;100.00
44297;BME280;51842;47.450;8.654;2023-12-07T05:18:07;95770.44;;;-1.82;100.00
44297;BME280;51842;47.450;8.654;2023-12-07T05:20:33;95773.25;;;-1.83;100.00
44297;BME280;51842;47.450;8.654;2023-12-07T05:22:59;95773.25;;;-1.83;100.00
44297;BME280;51842;47.450;8.654;2023-12-07T05:25:25;95771.81;;;-1.86;100.00
44297;BME280;51842;47.450;8.654;2023-12-07T05:27:51;95774.00;;;-1.90;100.00
44297;BME280;51842;47.450;8.654;2023-12-07T05:30:17;95770.50;;;-1.97;100.00
44297;BME280;51842;47.450;8.654;2023-12-07T05:32:43;95760.50;;;-1.93;100.00
44297;BME280;51842;47.450;8.654;2023-12-07T05:35:08;95769.94;;;-1.92;100.00
44297;BME280;51842;47.450;8.654;2023-12-07T05:37:34;95772.09;;;-1.96;100.00
44297;BME280;51842;47.450;8.654;2023-12-07T05:40:00;95769.94;;;-1.92;100.00
44297;BME280;51842;47.450;8.654;2023-12-07T05:42:26;95764.53;;;-1.91;100.00
44297;BME280;51842;47.450;8.654;2023-12-07T05:44:52;95767.16;;;-2.05;100.00
44297;BME280;51842;47.450;8.654;2023-12-07T05:47:18;95764.72;;;-2.07;100.00
44297;BME280;51842;47.450;8.654;2023-12-07T05:49:43;95767.06;;;-2.12;100.00
44297;BME280;51842;47.450;8.654;2023-12-07T05:52:09;95766.34;;;-2.21;100.00
44297;BME280;51842;47.450;8.654;2023-12-07T05:54:35;95768.97;;;-2.21;100.00
44297;BME280;51842;47.450;8.654;2023-12-07T05:57:01;95766.44;;;-2.29;100.00
44297;BME280;51842;47.450;8.654;2023-12-07T05:59:27;95762.28;;;-2.53;100.00
44297;BME280;51842;47.450;8.654;2023-12-07T06:01:53;95765.06;;;-2.54;100.00
44297;BME280;51842;47.450;8.654;2023-12-07T06:04:19;95770.03;;;-2.45;100.00
44297;BME280;51842;47.450;8.654;2023-12-07T06:06:45;95773.28;;;-2.43;100.00
44297;BME280;51842;47.450;8.654;2023-12-07T06:09:11;95763.94;;;-2.37;100.00
44297;BME280;51842;47.450;8.654;2023-12-07T06:11:37;95764.38;;;-2.34;100.00
44297;BME280;51842;47.450;8.654;2023-12-07T06:14:03;95770.84;;;-2.29;100.00
44297;BME280;51842;47.450;8.654;2023-12-07T06:16:31;95766.44;;;-2.29;100.00
44297;BME280;51842;47.450;8.654;2023-12-07T06:18:57;95766.44;;;-2.29;100.00
44297;BME280;51842;47.450;8.654;2023-12-07T06:21:23;95762.03;;;-2.28;100.00
44297;BME280;51842;47.450;8.654;2023-12-07T06:23:51;95762.22;;;-2.30;100.00
44297;BME280;51842;47.450;8.654;2023-12-07T06:26:17;95762.13;;;-2.37;100.00
44297;BME280;51842;47.450;8.654;2023-12-07T06:28:42;95765.53;;;-2.36;100.00
44297;BME280;51842;47.450;8.654;2023-12-07T06:31:09;95765.53;;;-2.36;100.00
44297;BME280;51842;47.450;8.654;2023-12-07T06:33:34;95773.19;;;-2.49;100.00
44297;BME280;51842;47.450;8.654;2023-12-07T06:36:01;95772.47;;;-2.43;100.00
44297;BME280;51842;47.450;8.654;2023-12-07T06:38:29;95773.91;;;-2.41;100.00
44297;BME280;51842;47.450;8.654;2023-12-07T06:40:55;95777.13;;;-2.39;100.00
44297;BME280;51842;47.450;8.654;2023-12-07T06:43:21;95772.75;;;-2.38;100.00
44297;BME280;51842;47.450;8.654;2023-12-07T06:45:48;95770.75;;;-2.36;100.00
44297;BME280;51842;47.450;8.654;2023-12-07T06:48:14;95770.41;;;-2.33;100.00
44297;BME280;51842;47.450;8.654;2023-12-07T06:50:40;95774.44;;;-2.30;100.00
44297;BME280;51842;47.450;8.654;2023-12-07T06:53:05;95783.38;;;-2.25;100.00
44297;BME280;51842;47.450;8.654;2023-12-07T06:55:31;95784.81;;;-2.22;100.00
44297;BME280;51842;47.450;8.654;2023-12-07T06:57:57;95784.63;;;-2.21;100.00
44297;BME280;51842;47.450;8.654;2023-12-07T07:00:23;95786.50;;;-2.15;100.00
44297;BME280;51842;47.450;8.654;2023-12-07T07:02:50;95788.84;;;-2.05;100.00
44297;BME280;51842;47.450;8.654;2023-12-07T07:05:16;95783.09;;;-2.00;100.00
44297;BME280;51842;47.450;8.654;2023-12-07T07:07:42;95790.22;;;-1.94;100.00
44297;BME280;51842;47.450;8.654;2023-12-07T07:10:08;95790.91;;;-1.86;100.00
44297;BME280;51842;47.450;8.654;2023-12-07T07:12:38;95793.44;;;-1.77;100.00
44297;BME280;51842;47.450;8.654;2023-12-07T07:15:07;95783.84;;;-1.70;100.00
44297;BME280;51842;47.450;8.654;2023-12-07T07:17:33;95786.53;;;-1.64;100.00
44297;BME280;51842;47.450;8.654;2023-12-07T07:19:58;95788.63;;;-1.59;100.00
44297;BME280;51842;47.450;8.654;2023-12-07T07:22:24;95781.41;;;-1.57;100.00
44297;BME280;51842;47.450;8.654;2023-12-07T07:24:50;95778.41;;;-1.54;100.00
44297;BME280;51842;47.450;8.654;2023-12-07T07:27:16;95781.66;;;-1.52;100.00
44297;BME280;51842;47.450;8.654;2023-12-07T07:29:42;95780.94;;;-1.46;100.00
44297;BME280;51842;47.450;8.654;2023-12-07T07:32:09;95782.59;;;-1.38;100.00
44297;BME280;51842;47.450;8.654;2023-12-07T07:34:34;95787.28;;;-1.33;100.00
44297;BME280;51842;47.450;8.654;2023-12-07T07:37:00;95783.31;;;-1.29;100.00
44297;BME280;51842;47.450;8.654;2023-12-07T07:39:26;95778.50;;;-1.26;100.00
44297;BME280;51842;47.450;8.654;2023-12-07T07:41:52;95772.25;;;-1.31;100.00
44297;BME280;51842;47.450;8.654;2023-12-07T07:44:17;95775.03;;;-1.33;100.00
44297;BME280;51842;47.450;8.654;2023-12-07T07:46:43;95764.78;;;-1.34;100.00
44297;BME280;51842;47.450;8.654;2023-12-07T07:49:09;95761.69;;;-1.38;100.00
44297;BME280;51842;47.450;8.654;2023-12-07T07:51:35;95764.69;;;-1.41;100.00
44297;BME280;51842;47.450;8.654;2023-12-07T07:54:01;95757.25;;;-1.44;100.00
44297;BME280;51842;47.450;8.654;2023-12-07T07:56:27;95760.09;;;-1.39;100.00
44297;BME280;51842;47.450;8.654;2023-12-07T07:58:52;95761.31;;;-1.35;100.00
44297;BME280;51842;47.450;8.654;2023-12-07T08:01:18;95757.75;;;-1.34;100.00
44297;BME280;51842;47.450;8.654;2023-12-07T08:03:44;95766.56;;;-1.35;100.00
44297;BME280;51842;47.450;8.654;2023-12-07T08:06:10;95769.63;;;-1.31;100.00
44297;BME280;51842;47.450;8.654;2023-12-07T08:08:36;95768.06;;;-1.26;100.00
44297;BME280;51842;47.450;8.654;2023-12-07T08:11:02;95771.78;;;-1.13;100.00
44297;BME280;51842;47.450;8.654;2023-12-07T08:13:27;95777.34;;;-1.02;100.00
44297;BME280;51842;47.450;8.654;2023-12-07T08:15:54;95773.72;;;-1.01;100.00
44297;BME280;51842;47.450;8.654;2023-12-07T08:18:19;95768.13;;;-0.98;100.00
44297;BME280;51842;47.450;8.654;2023-12-07T08:20:46;95767.09;;;-1.03;100.00
44297;BME280;51842;47.450;8.654;2023-12-07T08:23:12;95771.84;;;-1.07;100.00
44297;BME280;51842;47.450;8.654;2023-12-07T08:25:39;95772.31;;;-1.03;100.00
44297;BME280;51842;47.450;8.654;2023-12-07T08:28:06;95762.34;;;-0.93;100.00
44297;BME280;51842;47.450;8.654;2023-12-07T08:30:35;95765.25;;;-0.81;100.00
44297;BME280;51842;47.450;8.654;2023-12-07T08:33:02;95766.91;;;-0.74;100.00
44297;BME280;51842;47.450;8.654;2023-12-07T08:35:27;95766.97;;;-0.67;100.00
44297;BME280;51842;47.450;8.654;2023-12-07T08:37:53;95762.13;;;-0.70;100.00
44297;BME280;51842;47.450;8.654;2023-12-07T08:40:19;95759.16;;;-0.60;100.00
44297;BME280;51842;47.450;8.654;2023-12-07T08:42:47;95756.00;;;-0.56;100.00
44297;BME280;51842;47.450;8.654;2023-12-07T08:45:14;95757.94;;;-0.64;100.00
44297;BME280;51842;47.450;8.654;2023-12-07T08:47:41;95753.75;;;-0.59;100.00
44297;BME280;51842;47.450;8.654;2023-12-07T08:50:08;95744.53;;;-0.55;100.00
44297;BME280;51842;47.450;8.654;2023-12-07T08:52:35;95749.78;;;-0.48;100.00
44297;BME280;51842;47.450;8.654;2023-12-07T08:55:01;95748.66;;;-0.39;100.00
44297;BME280;51842;47.450;8.654;2023-12-07T08:57:27;95738.59;;;-0.35;100.00
44297;BME280;51842;47.450;8.654;2023-12-07T08:59:52;95748.69;;;-0.32;100.00
44297;BME280;51842;47.450;8.654;2023-12-07T09:02:20;95746.88;;;-0.32;100.00
44297;BME280;51842;47.450;8.654;2023-12-07T09:04:46;95747.13;;;-0.27;100.00
44297;BME280;51842;47.450;8.654;2023-12-07T09:07:12;95759.19;;;-0.26;100.00
44297;BME280;51842;47.450;8.654;2023-12-07T09:09:41;95771.56;;;-0.41;100.00
44297;BME280;51842;47.450;8.654;2023-12-07T09:12:14;95776.22;;;-0.43;100.00
44297;BME280;51842;47.450;8.654;2023-12-07T09:14:40;95782.72;;;-0.32;100.00
44297;BME280;51842;47.450;8.654;2023-12-07T09:17:06;95783.59;;;-0.25;100.00
44297;BME280;51842;47.450;8.654;2023-12-07T09:19:32;95787.53;;;-0.36;100.00
44297;BME280;51842;47.450;8.654;2023-12-07T09:21:58;95777.25;;;-0.37;100.00
44297;BME280;51842;47.450;8.654;2023-12-07T09:24:24;95766.16;;;-0.39;100.00
44297;BME280;51842;47.450;8.654;2023-12-07T09:26:50;95741.88;;;-0.27;100.00
44297;BME280;51842;47.450;8.654;2023-12-07T09:29:16;95743.38;;;-0.11;100.00
44297;BME280;51842;47.450;8.654;2023-12-07T09:31:41;95740.41;;;-0.01;100.00
44297;BME280;51842;47.450;8.654;2023-12-07T09:34:07;95728.75;;;0.08;100.00
44297;BME280;51842;47.450;8.654;2023-12-07T09:36:34;95734.63;;;0.10;100.00
44297;BME280;51842;47.450;8.654;2023-12-07T09:39:00;95736.44;;;0.10;100.00
44297;BME280;51842;47.450;8.654;2023-12-07T09:41:28;95734.38;;;0.05;100.00
44297;BME280;51842;47.450;8.654;2023-12-07T09:43:55;95741.22;;;0.06;100.00
44297;BME280;51842;47.450;8.654;2023-12-07T09:46:21;95746.25;;;0.01;100.00
44297;BME280;51842;47.450;8.654;2023-12-07T09:48:49;95738.78;;;-0.02;100.00
44297;BME280;51842;47.450;8.654;2023-12-07T09:51:16;95736.91;;;-0.15;100.00
44297;BME280;51842;47.450;8.654;2023-12-07T09:53:43;95737.88;;;-0.22;100.00
44297;BME280;51842;47.450;8.654;2023-12-07T09:56:10;95741.88;;;-0.27;100.00
44297;BME280;51842;47.450;8.654;2023-12-07T09:58:36;95732.97;;;-0.32;100.00
44297;BME280;51842;47.450;8.654;2023-12-07T10:01:05;95718.72;;;-0.23;100.00
44297;BME280;51842;47.450;8.654;2023-12-07T10:03:31;95725.00;;;-0.17;100.00
44297;BME280;51842;47.450;8.654;2023-12-07T10:06:00;95732.91;;;-0.11;100.00
44297;BME280;51842;47.450;8.654;2023-12-07T10:08:32;95722.88;;;-0.01;100.00
44297;BME280;51842;47.450;8.654;2023-12-07T10:11:24;95715.41;;;0.03;100.00
44297;BME280;51842;47.450;8.654;2023-12-07T10:13:49;95713.03;;;0.08;100.00
44297;BME280;51842;47.450;8.654;2023-12-07T10:16:16;95705.00;;;0.10;100.00
44297;BME280;51842;47.450;8.654;2023-12-07T10:18:43;95704.81;;;0.25;100.00
44297;BME280;51842;47.450;8.654;2023-12-07T10:21:10;95693.78;;;0.29;100.00
44297;BME280;51842;47.450;8.654;2023-12-07T10:23:42;95681.31;;;0.38;100.00
44297;BME280;51842;47.450;8.654;2023-12-07T10:26:13;95674.44;;;0.43;100.00
44297;BME280;51842;47.450;8.654;2023-12-07T10:28:39;95669.00;;;0.52;100.00
44297;BME280;51842;47.450;8.654;2023-12-07T10:31:09;95664.19;;;0.62;100.00
44297;BME280;51842;47.450;8.654;2023-12-07T10:33:37;95666.81;;;0.55;100.00
44297;BME280;51842;47.450;8.654;2023-12-07T10:36:04;95663.56;;;0.46;100.00
44297;BME280;51842;47.450;8.654;2023-12-07T10:38:31;95663.78;;;0.45;100.00
44297;BME280;51842;47.450;8.654;2023-12-07T10:41:06;95660.34;;;0.44;100.00
44297;BME280;51842;47.450;8.654;2023-12-07T10:43:38;95661.31;;;0.37;100.00
44297;BME280;51842;47.450;8.654;2023-12-07T10:46:09;95662.72;;;0.33;100.00
44297;BME280;51842;47.450;8.654;2023-12-07T10:48:40;95666.16;;;0.40;100.00
44297;BME280;51842;47.450;8.654;2023-12-07T10:51:28;95672.84;;;0.49;100.00
44297;BME280;51842;47.450;8.654;2023-12-07T10:53:57;95678.53;;;0.73;100.00
44297;BME280;51842;47.450;8.654;2023-12-07T10:56:39;95678.50;;;0.59;100.00
44297;BME280;51842;47.450;8.654;2023-12-07T10:59:13;95683.38;;;0.69;100.00
44297;BME280;51842;47.450;8.654;2023-12-07T11:01:40;95680.13;;;0.74;100.00
44297;BME280;51842;47.450;8.654;2023-12-07T11:04:13;95665.22;;;0.87;100.00
44297;BME280;51842;47.450;8.654;2023-12-07T11:06:48;95672.28;;;1.07;100.00
44297;BME280;51842;47.450;8.654;2023-12-07T11:09:34;95680.53;;;1.30;100.00
44297;BME280;51842;47.450;8.654;2023-12-07T11:12:51;95668.41;;;1.36;100.00
44297;BME280;51842;47.450;8.654;2023-12-07T11:15:19;95668.44;;;1.29;100.00
44297;BME280;51842;47.450;8.654;2023-12-07T11:17:56;95660.53;;;1.36;100.00
44297;BME280;51842;47.450;8.654;2023-12-07T11:20:41;95658.31;;;1.39;100.00
44297;BME280;51842;47.450;8.654;2023-12-07T11:23:11;95652.84;;;1.48;100.00
44297;BME280;51842;47.450;8.654;2023-12-07T11:25:38;95638.88;;;1.60;100.00
44297;BME280;51842;47.450;8.654;2023-12-07T11:28:06;95636.81;;;1.76;100.00
44297;BME280;51842;47.450;8.654;2023-12-07T11:30:36;95637.75;;;1.95;100.00
44297;BME280;51842;47.450;8.654;2023-12-07T11:33:06;95632.06;;;1.91;100.00
44297;BME280;51842;47.450;8.654;2023-12-07T11:35:33;95619.09;;;2.03;100.00
44297;BME280;51842;47.450;8.654;2023-12-07T11:38:09;95610.09;;;1.85;100.00
44297;BME280;51842;47.450;8.654;2023-12-07T11:40:43;95609.00;;;2.00;100.00
44297;BME280;51842;47.450;8.654;2023-12-07T11:43:42;95603.63;;;1.81;100.00
44297;BME280;51842;47.450;8.654;2023-12-07T11:46:11;95593.06;;;1.43;100.00
44297;BME280;51842;47.450;8.654;2023-12-07T11:48:38;95599.03;;;1.77;100.00
44297;BME280;51842;47.450;8.654;2023-12-07T11:51:07;95594.38;;;1.79;100.00
44297;BME280;51842;47.450;8.654;2023-12-07T11:53:37;95579.25;;;2.06;100.00
44297;BME280;51842;47.450;8.654;2023-12-07T11:56:08;95581.31;;;2.04;100.00
44297;BME280;51842;47.450;8.654;2023-12-07T11:58:37;95586.72;;;2.09;100.00
44297;BME280;51842;47.450;8.654;2023-12-07T12:01:04;95577.84;;;2.03;100.00
44297;BME280;51842;47.450;8.654;2023-12-07T12:03:32;95570.50;;;1.80;100.00
44297;BME280;51842;47.450;8.654;2023-12-07T12:05:58;95568.22;;;1.52;100.00
44297;BME280;51842;47.450;8.654;2023-12-07T12:08:24;95567.69;;;1.30;100.00
44297;BME280;51842;47.450;8.654;2023-12-07T12:10:53;95557.31;;;1.49;100.00
44297;BME280;51842;47.450;8.654;2023-12-07T12:13:28;95554.72;;;1.42;100.00
44297;BME280;51842;47.450;8.654;2023-12-07T12:15:57;95545.41;;;1.46;100.00
44297;BME280;51842;47.450;8.654;2023-12-07T12:18:23;95548.28;;;1.38;100.00
44297;BME280;51842;47.450;8.654;2023-12-07T12:20:52;95543.13;;;1.05;100.00
44297;BME280;51842;47.450;8.654;2023-12-07T12:23:18;95544.53;;;1.07;100.00
44297;BME280;51842;47.450;8.654;2023-12-07T12:25:46;95537.84;;;1.11;100.00
44297;BME280;51842;47.450;8.654;2023-12-07T12:28:17;95528.69;;;1.34;100.00
44297;BME280;51842;47.450;8.654;2023-12-07T12:30:45;95520.75;;;1.54;100.00
44297;BME280;51842;47.450;8.654;2023-12-07T12:33:13;95526.25;;;1.39;100.00
44297;BME280;51842;47.450;8.654;2023-12-07T12:35:40;95520.44;;;1.30;100.00
44297;BME280;51842;47.450;8.654;2023-12-07T12:38:11;95523.16;;;1.55;100.00
44297;BME280;51842;47.450;8.654;2023-12-07T12:40:38;95530.09;;;1.81;100.00
44297;BME280;51842;47.450;8.654;2023-12-07T12:43:05;95526.69;;;1.74;100.00
44297;BME280;51842;47.450;8.654;2023-12-07T12:45:32;95528.28;;;1.82;100.00
44297;BME280;51842;47.450;8.654;2023-12-07T12:47:58;95534.91;;;1.84;100.00
44297;BME280;51842;47.450;8.654;2023-12-07T12:50:41;95541.50;;;2.00;100.00
44297;BME280;51842;47.450;8.654;2023-12-07T12:53:12;95533.31;;;2.15;100.00
44297;BME280;51842;47.450;8.654;2023-12-07T12:55:41;95537.66;;;2.03;100.00
44297;BME280;51842;47.450;8.654;2023-12-07T12:58:10;95540.91;;;1.98;100.00
44297;BME280;51842;47.450;8.654;2023-12-07T13:00:40;95529.94;;;2.08;100.00
44297;BME280;51842;47.450;8.654;2023-12-07T13:03:10;95528.38;;;2.25;100.00
44297;BME280;51842;47.450;8.654;2023-12-07T13:05:38;95529.25;;;2.19;100.00
44297;BME280;51842;47.450;8.654;2023-12-07T13:08:05;95534.78;;;2.36;100.00
44297;BME280;51842;47.450;8.654;2023-12-07T13:10:30;95527.22;;;2.46;99.74
44297;BME280;51842;47.450;8.654;2023-12-07T13:12:57;95540.13;;;2.54;99.29
44297;BME280;51842;47.450;8.654;2023-12-07T13:15:23;95528.56;;;2.55;98.29
44297;BME280;51842;47.450;8.654;2023-12-07T13:17:50;95516.16;;;2.63;98.54
44297;BME280;51842;47.450;8.654;2023-12-07T13:20:16;95524.59;;;2.71;97.94
44297;BME280;51842;47.450;8.654;2023-12-07T13:22:42;95525.47;;;2.84;97.98
44297;BME280;51842;47.450;8.654;2023-12-07T13:25:12;95528.06;;;2.90;97.40
44297;BME280;51842;47.450;8.654;2023-12-07T13:27:40;95531.53;;;2.84;95.67
44297;BME280;51842;47.450;8.654;2023-12-07T13:30:07;95530.63;;;2.97;95.74
44297;BME280;51842;47.450;8.654;2023-12-07T13:32:35;95520.38;;;2.89;95.19
44297;BME280;51842;47.450;8.654;2023-12-07T13:35:06;95516.00;;;2.83;94.50
44297;BME280;51842;47.450;8.654;2023-12-07T13:37:34;95511.25;;;2.66;94.03
44297;BME280;51842;47.450;8.654;2023-12-07T13:40:00;95518.84;;;2.56;94.71
44297;BME280;51842;47.450;8.654;2023-12-07T13:42:31;95536.56;;;2.42;94.75
44297;BME280;51842;47.450;8.654;2023-12-07T13:44:58;95539.88;;;2.31;95.92
44297;BME280;51842;47.450;8.654;2023-12-07T13:47:27;95532.41;;;2.28;97.27